ABR277G EBLG-LSGG
Flight info
| Callsign | ABR277G |
|---|---|
| Flight time | 0h 55m |
| Altitude | 29000 |
| Route | LNO N852 SUTAL DCT GTQ DCT POGOL DCT LASAT DCT MOROK Z24 AKITO |
| Aircraft | B738/M-SDE2E3FGHIRWXY/LB1 |
Departure
| Time | 2026-04-24 15:11 |
|---|---|
| Airport | Liège Airport (EBLG) |
Arrival
| Time | 2026-04-24 16:06 |
|---|---|
| Airport | Geneva International Airport (LSGG) |
| Time | Latitude | Longitude | Altitude | Speed | Heading |
|---|---|---|---|---|---|
| 2026-04-24 14:56 | 50.63757 | 5.44964 | 615 ft | 0 kts | 135° |
| 2026-04-24 14:59 | 50.63759 | 5.44960 | 615 ft | 2 kts | 135° |
| 2026-04-24 15:00 | 50.63772 | 5.44941 | 650 ft | 3 kts | 139° |
| 2026-04-24 15:00 | 50.63788 | 5.44921 | 617 ft | 3 kts | 148° |
| 2026-04-24 15:00 | 50.63806 | 5.44907 | 628 ft | 3 kts | 168° |
| 2026-04-24 15:00 | 50.63822 | 5.44905 | 627 ft | 2 kts | 212° |
| 2026-04-24 15:01 | 50.63827 | 5.44911 | 626 ft | 0 kts | 225° |
| 2026-04-24 15:05 | 50.63827 | 5.44910 | 615 ft | 0 kts | 225° |
| 2026-04-24 15:05 | 50.63824 | 5.44905 | 615 ft | 1 kts | 225° |
| 2026-04-24 15:06 | 50.63807 | 5.44879 | 620 ft | 6 kts | 225° |
| 2026-04-24 15:06 | 50.63766 | 5.44814 | 620 ft | 10 kts | 225° |
| 2026-04-24 15:06 | 50.63710 | 5.44726 | 620 ft | 13 kts | 225° |
| 2026-04-24 15:06 | 50.63642 | 5.44618 | 619 ft | 15 kts | 225° |
| 2026-04-24 15:07 | 50.63572 | 5.44507 | 622 ft | 14 kts | 225° |
| 2026-04-24 15:07 | 50.63506 | 5.44403 | 626 ft | 13 kts | 225° |
| 2026-04-24 15:07 | 50.63442 | 5.44302 | 628 ft | 13 kts | 225° |
| 2026-04-24 15:07 | 50.63379 | 5.44204 | 638 ft | 13 kts | 225° |
| 2026-04-24 15:08 | 50.63319 | 5.44107 | 638 ft | 12 kts | 225° |
| 2026-04-24 15:08 | 50.63260 | 5.44014 | 638 ft | 12 kts | 225° |
| 2026-04-24 15:08 | 50.63210 | 5.43935 | 639 ft | 8 kts | 227° |
| 2026-04-24 15:08 | 50.63201 | 5.43852 | 639 ft | 8 kts | 299° |
| 2026-04-24 15:09 | 50.63253 | 5.43835 | 639 ft | 8 kts | 13° |
| 2026-04-24 15:09 | 50.63320 | 5.43845 | 640 ft | 11 kts | 349° |
| 2026-04-24 15:09 | 50.63392 | 5.43858 | 640 ft | 12 kts | 36° |
| 2026-04-24 15:09 | 50.63433 | 5.43924 | 637 ft | 3 kts | 46° |
| 2026-04-24 15:10 | 50.63453 | 5.43957 | 636 ft | 6 kts | 45° |
| 2026-04-24 15:10 | 50.63494 | 5.44022 | 636 ft | 14 kts | 45° |
| 2026-04-24 15:10 | 50.63742 | 5.44412 | 624 ft | 90 kts | 45° |
| 2026-04-24 15:10 | 50.64359 | 5.45389 | 602 ft | 158 kts | 44° |
| 2026-04-24 15:11 | 50.65168 | 5.46704 | 1236 ft | 169 kts | 45° |
| 2026-04-24 15:11 | 50.65964 | 5.48038 | 2261 ft | 169 kts | 45° |
| 2026-04-24 15:11 | 50.66791 | 5.49398 | 3044 ft | 179 kts | 45° |
| 2026-04-24 15:11 | 50.67692 | 5.50831 | 3912 ft | 186 kts | 43° |
| 2026-04-24 15:12 | 50.68646 | 5.52254 | 4693 ft | 192 kts | 42° |
| 2026-04-24 15:12 | 50.70916 | 5.54500 | 6066 ft | 202 kts | 6° |
| 2026-04-24 15:12 | 50.72302 | 5.54088 | 6734 ft | 207 kts | 334° |
| 2026-04-24 15:13 | 50.73363 | 5.52625 | 7615 ft | 204 kts | 306° |
| 2026-04-24 15:13 | 50.73882 | 5.50538 | 8326 ft | 208 kts | 280° |
| 2026-04-24 15:13 | 50.73786 | 5.48224 | 8891 ft | 219 kts | 255° |
| 2026-04-24 15:13 | 50.73056 | 5.46101 | 9414 ft | 224 kts | 229° |
| 2026-04-24 15:14 | 50.71786 | 5.44540 | 9679 ft | 251 kts | 208° |
| 2026-04-24 15:14 | 50.70068 | 5.43661 | 10134 ft | 265 kts | 187° |
| 2026-04-24 15:14 | 50.68249 | 5.43744 | 10939 ft | 261 kts | 167° |
| 2026-04-24 15:14 | 50.66570 | 5.44836 | 11662 ft | 265 kts | 146° |
| 2026-04-24 15:15 | 50.65222 | 5.46851 | 12232 ft | 272 kts | 125° |
| 2026-04-24 15:15 | 50.64301 | 5.49453 | 12946 ft | 273 kts | 116° |
| 2026-04-24 15:15 | 50.63517 | 5.52196 | 13659 ft | 275 kts | 113° |
| 2026-04-24 15:15 | 50.62774 | 5.55006 | 14264 ft | 286 kts | 113° |
| 2026-04-24 15:16 | 50.62000 | 5.57984 | 14478 ft | 309 kts | 113° |
| 2026-04-24 15:16 | 50.61155 | 5.61235 | 14683 ft | 333 kts | 113° |
| 2026-04-24 15:16 | 50.60241 | 5.64722 | 14880 ft | 355 kts | 113° |
| 2026-04-24 15:16 | 50.59155 | 5.68355 | 14984 ft | 378 kts | 124° |
| 2026-04-24 15:17 | 50.57348 | 5.71447 | 15231 ft | 392 kts | 145° |
| 2026-04-24 15:17 | 50.54924 | 5.73451 | 15761 ft | 396 kts | 160° |
| 2026-04-24 15:17 | 50.52328 | 5.74960 | 16462 ft | 399 kts | 162° |
| 2026-04-24 15:17 | 50.49710 | 5.76416 | 17151 ft | 401 kts | 162° |
| 2026-04-24 15:18 | 50.47106 | 5.77866 | 17788 ft | 404 kts | 162° |
| 2026-04-24 15:18 | 50.44446 | 5.79363 | 18418 ft | 407 kts | 162° |
| 2026-04-24 15:18 | 50.41775 | 5.80890 | 18978 ft | 411 kts | 161° |
| 2026-04-24 15:18 | 50.39084 | 5.82443 | 19562 ft | 413 kts | 161° |
| 2026-04-24 15:19 | 50.36378 | 5.84013 | 20090 ft | 416 kts | 161° |
| 2026-04-24 15:19 | 50.33653 | 5.85599 | 20626 ft | 419 kts | 161° |
| 2026-04-24 15:19 | 50.30911 | 5.87195 | 21141 ft | 422 kts | 162° |
| 2026-04-24 15:19 | 50.28147 | 5.88801 | 21642 ft | 425 kts | 162° |
| 2026-04-24 15:20 | 50.25363 | 5.90417 | 22147 ft | 428 kts | 162° |
| 2026-04-24 15:20 | 50.22602 | 5.92018 | 22657 ft | 430 kts | 162° |
| 2026-04-24 15:20 | 50.19785 | 5.93648 | 23125 ft | 433 kts | 162° |
| 2026-04-24 15:20 | 50.16950 | 5.95288 | 23588 ft | 436 kts | 162° |
| 2026-04-24 15:21 | 50.14093 | 5.96938 | 24003 ft | 439 kts | 162° |
| 2026-04-24 15:21 | 50.11223 | 5.98594 | 24413 ft | 441 kts | 162° |
| 2026-04-24 15:21 | 50.08340 | 6.00254 | 24838 ft | 442 kts | 162° |
| 2026-04-24 15:21 | 50.05446 | 6.01918 | 25219 ft | 445 kts | 162° |
| 2026-04-24 15:22 | 50.02539 | 6.03588 | 25586 ft | 447 kts | 162° |
| 2026-04-24 15:22 | 49.99653 | 6.05243 | 25954 ft | 449 kts | 162° |
| 2026-04-24 15:22 | 49.96714 | 6.06927 | 26299 ft | 452 kts | 162° |
| 2026-04-24 15:23 | 49.90794 | 6.10312 | 27028 ft | 455 kts | 162° |
| 2026-04-24 15:23 | 49.84841 | 6.13767 | 27749 ft | 458 kts | 160° |
| 2026-04-24 15:23 | 49.81911 | 6.15701 | 28242 ft | 457 kts | 159° |
| 2026-04-24 15:24 | 49.73284 | 6.21688 | 29175 ft | 458 kts | 158° |
| 2026-04-24 15:25 | 49.68440 | 6.24984 | 29182 ft | 455 kts | 159° |
| 2026-04-24 15:26 | 49.53009 | 6.35086 | 29184 ft | 454 kts | 160° |
| 2026-04-24 15:27 | 49.35607 | 6.46668 | 29181 ft | 454 kts | 158° |
| 2026-04-24 15:29 | 49.18345 | 6.58387 | 29179 ft | 452 kts | 158° |
| 2026-04-24 15:31 | 48.98050 | 6.71087 | 29187 ft | 448 kts | 171° |
| 2026-04-24 15:32 | 48.85720 | 6.71180 | 29173 ft | 445 kts | 183° |
| 2026-04-24 15:33 | 48.73332 | 6.70623 | 29170 ft | 445 kts | 182° |
| 2026-04-24 15:34 | 48.57893 | 6.70029 | 29173 ft | 445 kts | 182° |
| 2026-04-24 15:35 | 48.42468 | 6.69435 | 29158 ft | 445 kts | 182° |
| 2026-04-24 15:36 | 48.36286 | 6.69197 | 29161 ft | 444 kts | 182° |
| 2026-04-24 15:36 | 48.27018 | 6.68840 | 29163 ft | 444 kts | 182° |
| 2026-04-24 15:37 | 48.20887 | 6.68605 | 29158 ft | 444 kts | 182° |
| 2026-04-24 15:37 | 48.14772 | 6.68371 | 28706 ft | 432 kts | 182° |
| 2026-04-24 15:38 | 48.11768 | 6.68257 | 27858 ft | 433 kts | 181° |
| 2026-04-24 15:38 | 48.08741 | 6.68142 | 26803 ft | 438 kts | 181° |
| 2026-04-24 15:38 | 48.05671 | 6.68025 | 25741 ft | 445 kts | 181° |
| 2026-04-24 15:38 | 48.02607 | 6.67909 | 25303 ft | 435 kts | 181° |
| 2026-04-24 15:39 | 47.99589 | 6.67794 | 24815 ft | 436 kts | 181° |
| 2026-04-24 15:39 | 47.96533 | 6.67679 | 24373 ft | 442 kts | 181° |
| 2026-04-24 15:39 | 47.93454 | 6.67563 | 24218 ft | 444 kts | 181° |
| 2026-04-24 15:39 | 47.90410 | 6.67448 | 24170 ft | 443 kts | 181° |
| 2026-04-24 15:40 | 47.87334 | 6.67332 | 24150 ft | 441 kts | 181° |
| 2026-04-24 15:40 | 47.84268 | 6.67216 | 24145 ft | 441 kts | 181° |
| 2026-04-24 15:40 | 47.81196 | 6.67100 | 24134 ft | 442 kts | 181° |
| 2026-04-24 15:40 | 47.78126 | 6.66985 | 24134 ft | 441 kts | 181° |
| 2026-04-24 15:41 | 47.75057 | 6.66870 | 24150 ft | 441 kts | 181° |
| 2026-04-24 15:41 | 47.71990 | 6.66755 | 24140 ft | 441 kts | 181° |
| 2026-04-24 15:41 | 47.68928 | 6.66640 | 24148 ft | 440 kts | 181° |
| 2026-04-24 15:41 | 47.65866 | 6.66526 | 24138 ft | 440 kts | 181° |
| 2026-04-24 15:42 | 47.62843 | 6.66413 | 24142 ft | 440 kts | 181° |
| 2026-04-24 15:42 | 47.59779 | 6.66298 | 24136 ft | 440 kts | 181° |
| 2026-04-24 15:42 | 47.56718 | 6.66184 | 24136 ft | 440 kts | 181° |
| 2026-04-24 15:42 | 47.53654 | 6.66070 | 24135 ft | 440 kts | 181° |
| 2026-04-24 15:43 | 47.50590 | 6.65956 | 24136 ft | 441 kts | 181° |
| 2026-04-24 15:43 | 47.47523 | 6.65841 | 24133 ft | 441 kts | 181° |
| 2026-04-24 15:43 | 47.44457 | 6.65728 | 24136 ft | 441 kts | 181° |
| 2026-04-24 15:43 | 47.41386 | 6.65614 | 24128 ft | 441 kts | 181° |
| 2026-04-24 15:44 | 47.38317 | 6.65500 | 24132 ft | 441 kts | 181° |
| 2026-04-24 15:44 | 47.35253 | 6.65387 | 24137 ft | 441 kts | 181° |
| 2026-04-24 15:44 | 47.32182 | 6.65274 | 24140 ft | 441 kts | 181° |
| 2026-04-24 15:44 | 47.29162 | 6.65163 | 24140 ft | 440 kts | 181° |
| 2026-04-24 15:45 | 47.26099 | 6.65050 | 24173 ft | 440 kts | 181° |
| 2026-04-24 15:45 | 47.23056 | 6.64627 | 24166 ft | 441 kts | 193° |
| 2026-04-24 15:45 | 47.20190 | 6.63040 | 24179 ft | 443 kts | 207° |
| 2026-04-24 15:45 | 47.17696 | 6.60377 | 24193 ft | 444 kts | 220° |
| 2026-04-24 15:46 | 47.15396 | 6.57339 | 24185 ft | 445 kts | 221° |
| 2026-04-24 15:46 | 47.13119 | 6.54265 | 24176 ft | 445 kts | 221° |
| 2026-04-24 15:46 | 47.10839 | 6.51193 | 24171 ft | 445 kts | 220° |
| 2026-04-24 15:46 | 47.08579 | 6.48182 | 24171 ft | 445 kts | 220° |
| 2026-04-24 15:47 | 47.06281 | 6.45151 | 24169 ft | 444 kts | 220° |
| 2026-04-24 15:47 | 47.03976 | 6.42133 | 24167 ft | 444 kts | 220° |
| 2026-04-24 15:47 | 47.01669 | 6.39128 | 24172 ft | 444 kts | 219° |
| 2026-04-24 15:47 | 46.99364 | 6.36139 | 24138 ft | 440 kts | 218° |
| 2026-04-24 15:48 | 46.96960 | 6.33490 | 23682 ft | 428 kts | 212° |
| 2026-04-24 15:48 | 46.94465 | 6.31118 | 22848 ft | 426 kts | 211° |
| 2026-04-24 15:48 | 46.91957 | 6.28814 | 22012 ft | 425 kts | 210° |
| 2026-04-24 15:48 | 46.89457 | 6.26525 | 21253 ft | 423 kts | 211° |
| 2026-04-24 15:49 | 46.87017 | 6.24269 | 20588 ft | 418 kts | 211° |
| 2026-04-24 15:49 | 46.84580 | 6.21991 | 19960 ft | 414 kts | 211° |
| 2026-04-24 15:49 | 46.82172 | 6.19728 | 19304 ft | 410 kts | 212° |
| 2026-04-24 15:49 | 46.79788 | 6.17475 | 18677 ft | 406 kts | 212° |
| 2026-04-24 15:50 | 46.77426 | 6.15244 | 17990 ft | 402 kts | 212° |
| 2026-04-24 15:50 | 46.75086 | 6.13034 | 17263 ft | 399 kts | 212° |
| 2026-04-24 15:50 | 46.72759 | 6.10841 | 16564 ft | 397 kts | 212° |
| 2026-04-24 15:50 | 46.70450 | 6.08666 | 15857 ft | 394 kts | 212° |
| 2026-04-24 15:51 | 46.68150 | 6.06501 | 15182 ft | 393 kts | 212° |
| 2026-04-24 15:51 | 46.65864 | 6.04351 | 14559 ft | 390 kts | 212° |
| 2026-04-24 15:51 | 46.63623 | 6.02244 | 13979 ft | 387 kts | 212° |
| 2026-04-24 15:51 | 46.61368 | 6.00130 | 13316 ft | 384 kts | 212° |
| 2026-04-24 15:52 | 46.59133 | 5.98032 | 12715 ft | 380 kts | 212° |
| 2026-04-24 15:52 | 46.56925 | 5.95968 | 12329 ft | 372 kts | 212° |
| 2026-04-24 15:52 | 46.54796 | 5.93977 | 12178 ft | 357 kts | 212° |
| 2026-04-24 15:52 | 46.52744 | 5.92102 | 12132 ft | 340 kts | 207° |
| 2026-04-24 15:53 | 46.50556 | 5.91101 | 12139 ft | 326 kts | 185° |
| 2026-04-24 15:53 | 46.48327 | 5.91263 | 12149 ft | 318 kts | 168° |
| 2026-04-24 15:53 | 46.46218 | 5.92149 | 12109 ft | 314 kts | 167° |
| 2026-04-24 15:53 | 46.44057 | 5.92308 | 11920 ft | 311 kts | 185° |
| 2026-04-24 15:54 | 46.41953 | 5.91962 | 11597 ft | 308 kts | 187° |
| 2026-04-24 15:54 | 46.39833 | 5.91620 | 11191 ft | 305 kts | 186° |
| 2026-04-24 15:54 | 46.37725 | 5.91333 | 10902 ft | 302 kts | 185° |
| 2026-04-24 15:54 | 46.35644 | 5.91089 | 10633 ft | 299 kts | 185° |
| 2026-04-24 15:55 | 46.33558 | 5.90866 | 10248 ft | 301 kts | 184° |
| 2026-04-24 15:55 | 46.31481 | 5.90663 | 9974 ft | 298 kts | 184° |
| 2026-04-24 15:55 | 46.29413 | 5.90470 | 9592 ft | 298 kts | 184° |
| 2026-04-24 15:55 | 46.27352 | 5.90279 | 9273 ft | 296 kts | 184° |
| 2026-04-24 15:56 | 46.25328 | 5.90093 | 8944 ft | 295 kts | 186° |
| 2026-04-24 15:56 | 46.23384 | 5.89299 | 8766 ft | 287 kts | 208° |
| 2026-04-24 15:56 | 46.21846 | 5.87591 | 8569 ft | 274 kts | 225° |
| 2026-04-24 15:56 | 46.20512 | 5.85652 | 8367 ft | 270 kts | 225° |
| 2026-04-24 15:57 | 46.19210 | 5.83728 | 8192 ft | 265 kts | 225° |
| 2026-04-24 15:57 | 46.17947 | 5.81864 | 8134 ft | 255 kts | 225° |
| 2026-04-24 15:57 | 46.17137 | 5.80673 | 8123 ft | 249 kts | 225° |
| 2026-04-24 15:57 | 46.15521 | 5.78300 | 8095 ft | 247 kts | 225° |
| 2026-04-24 15:58 | 46.14335 | 5.76547 | 7899 ft | 243 kts | 225° |
| 2026-04-24 15:58 | 46.13166 | 5.74816 | 7611 ft | 245 kts | 225° |
| 2026-04-24 15:58 | 46.11981 | 5.73060 | 7395 ft | 243 kts | 226° |
| 2026-04-24 15:58 | 46.10811 | 5.71329 | 7218 ft | 240 kts | 223° |
| 2026-04-24 15:59 | 46.09386 | 5.70175 | 7002 ft | 235 kts | 192° |
| 2026-04-24 15:59 | 46.07781 | 5.70275 | 6739 ft | 233 kts | 159° |
| 2026-04-24 15:59 | 46.06391 | 5.71440 | 6557 ft | 231 kts | 144° |
| 2026-04-24 15:59 | 46.05108 | 5.72813 | 6385 ft | 228 kts | 143° |
| 2026-04-24 16:00 | 46.03968 | 5.74351 | 6174 ft | 225 kts | 123° |
| 2026-04-24 16:00 | 46.03497 | 5.76460 | 6027 ft | 225 kts | 88° |
| 2026-04-24 16:00 | 46.03786 | 5.78678 | 6034 ft | 227 kts | 74° |
| 2026-04-24 16:00 | 46.04226 | 5.80835 | 5984 ft | 228 kts | 73° |
| 2026-04-24 16:01 | 46.04853 | 5.82901 | 5968 ft | 225 kts | 51° |
| 2026-04-24 16:01 | 46.05911 | 5.84530 | 5984 ft | 222 kts | 46° |
| 2026-04-24 16:01 | 46.06993 | 5.86160 | 5767 ft | 230 kts | 46° |
| 2026-04-24 16:01 | 46.08112 | 5.87827 | 5480 ft | 232 kts | 45° |
| 2026-04-24 16:02 | 46.09246 | 5.89501 | 5199 ft | 235 kts | 45° |
| 2026-04-24 16:02 | 46.10391 | 5.91186 | 4863 ft | 235 kts | 45° |
| 2026-04-24 16:02 | 46.11525 | 5.92855 | 4575 ft | 230 kts | 45° |
| 2026-04-24 16:02 | 46.12631 | 5.94480 | 4249 ft | 223 kts | 45° |
| 2026-04-24 16:03 | 46.13691 | 5.96043 | 3979 ft | 213 kts | 45° |
| 2026-04-24 16:03 | 46.14713 | 5.97545 | 3687 ft | 207 kts | 45° |
| 2026-04-24 16:03 | 46.15679 | 5.98963 | 3415 ft | 195 kts | 45° |
| 2026-04-24 16:03 | 46.16594 | 6.00308 | 3150 ft | 181 kts | 45° |
| 2026-04-24 16:04 | 46.17456 | 6.01573 | 2934 ft | 172 kts | 45° |
| 2026-04-24 16:04 | 46.18265 | 6.02761 | 2727 ft | 159 kts | 45° |
| 2026-04-24 16:04 | 46.19006 | 6.03850 | 2535 ft | 152 kts | 46° |
| 2026-04-24 16:04 | 46.19738 | 6.04931 | 2327 ft | 148 kts | 47° |
| 2026-04-24 16:05 | 46.21157 | 6.07054 | 1945 ft | 148 kts | 46° |
| 2026-04-24 16:05 | 46.21899 | 6.08113 | 1721 ft | 152 kts | 45° |
| 2026-04-24 16:06 | 46.23349 | 6.10225 | 1397 ft | 135 kts | 45° |
| 2026-04-24 16:06 | 46.23924 | 6.11067 | 1379 ft | 100 kts | 45° |
| 2026-04-24 16:06 | 46.24322 | 6.11766 | 1367 ft | 28 kts | 72° |
| 2026-04-24 16:07 | 46.24337 | 6.11910 | 1364 ft | 11 kts | 112° |
| 2026-04-24 16:07 | 46.24272 | 6.11911 | 1360 ft | 12 kts | 223° |
| 2026-04-24 16:07 | 46.24155 | 6.11740 | 1364 ft | 12 kts | 225° |
| 2026-04-24 16:08 | 46.24099 | 6.11657 | 1367 ft | 11 kts | 225° |
| 2026-04-24 16:08 | 46.23991 | 6.11500 | 1371 ft | 11 kts | 225° |
| 2026-04-24 16:09 | 46.23892 | 6.11354 | 1374 ft | 9 kts | 225° |
| 2026-04-24 16:09 | 46.23852 | 6.11295 | 1375 ft | 7 kts | 225° |
| 2026-04-24 16:09 | 46.23828 | 6.11260 | 1377 ft | 7 kts | 225° |
| 2026-04-24 16:09 | 46.23795 | 6.11234 | 1376 ft | 4 kts | 159° |
| 2026-04-24 16:10 | 46.23744 | 6.11303 | 1376 ft | 0 kts | 136° |